sensor_id;sensor_type;location;lat;lon;timestamp;pressure;altitude;pressure_sealevel;temperature;humidity
21504;BME280;10913;51.992;9.228;2023-02-11T00:01:20;101903.97;;;6.16;100.00
21504;BME280;10913;51.992;9.228;2023-02-11T00:03:46;101913.81;;;6.23;100.00
21504;BME280;10913;51.992;9.228;2023-02-11T00:06:11;101900.72;;;6.23;100.00
21504;BME280;10913;51.992;9.228;2023-02-11T00:08:37;101903.44;;;6.26;100.00
21504;BME280;10913;51.992;9.228;2023-02-11T00:11:03;101897.38;;;6.27;100.00
21504;BME280;10913;51.992;9.228;2023-02-11T00:13:29;101900.81;;;6.26;100.00
21504;BME280;10913;51.992;9.228;2023-02-11T00:15:54;101903.34;;;6.23;100.00
21504;BME280;10913;51.992;9.228;2023-02-11T00:18:20;101908.63;;;6.25;100.00
21504;BME280;10913;51.992;9.228;2023-02-11T00:20:45;101912.28;;;6.28;100.00
21504;BME280;10913;51.992;9.228;2023-02-11T00:23:11;101904.34;;;6.27;100.00
21504;BME280;10913;51.992;9.228;2023-02-11T00:25:40;101900.94;;;6.29;100.00
21504;BME280;10913;51.992;9.228;2023-02-11T00:28:06;101893.13;;;6.31;100.00
21504;BME280;10913;51.992;9.228;2023-02-11T00:30:32;101906.31;;;6.32;100.00
21504;BME280;10913;51.992;9.228;2023-02-11T00:32:57;101902.84;;;6.33;100.00
21504;BME280;10913;51.992;9.228;2023-02-11T00:35:22;101910.66;;;6.32;100.00
21504;BME280;10913;51.992;9.228;2023-02-11T00:37:48;101909.75;;;6.31;100.00
21504;BME280;10913;51.992;9.228;2023-02-11T00:40:13;101906.19;;;6.29;100.00
21504;BME280;10913;51.992;9.228;2023-02-11T00:42:40;101905.47;;;6.33;100.00
21504;BME280;10913;51.992;9.228;2023-02-11T00:45:06;101899.38;;;6.34;100.00
21504;BME280;10913;51.992;9.228;2023-02-11T00:47:34;101891.69;;;6.39;100.00
21504;BME280;10913;51.992;9.228;2023-02-11T00:49:59;101902.19;;;6.39;100.00
21504;BME280;10913;51.992;9.228;2023-02-11T00:52:25;101898.81;;;6.43;100.00
21504;BME280;10913;51.992;9.228;2023-02-11T00:54:50;101903.94;;;6.40;100.00
21504;BME280;10913;51.992;9.228;2023-02-11T00:57:15;101880.38;;;6.41;100.00
21504;BME280;10913;51.992;9.228;2023-02-11T00:59:41;101881.19;;;6.39;100.00
21504;BME280;10913;51.992;9.228;2023-02-11T01:02:06;101892.66;;;6.42;100.00
21504;BME280;10913;51.992;9.228;2023-02-11T01:04:31;101906.72;;;6.44;100.00
21504;BME280;10913;51.992;9.228;2023-02-11T01:06:57;101898.75;;;6.41;100.00
21504;BME280;10913;51.992;9.228;2023-02-11T01:09:22;101902.25;;;6.42;100.00
21504;BME280;10913;51.992;9.228;2023-02-11T01:11:47;101892.66;;;6.42;100.00
21504;BME280;10913;51.992;9.228;2023-02-11T01:14:13;101889.97;;;6.41;100.00
21504;BME280;10913;51.992;9.228;2023-02-11T01:16:38;101884.78;;;6.42;100.00
21504;BME280;10913;51.992;9.228;2023-02-11T01:19:04;101894.44;;;6.43;100.00
21504;BME280;10913;51.992;9.228;2023-02-11T01:21:30;101897.97;;;6.44;100.00
21504;BME280;10913;51.992;9.228;2023-02-11T01:23:55;101911.97;;;6.44;100.00
21504;BME280;10913;51.992;9.228;2023-02-11T01:26:20;101918.97;;;6.44;100.00
21504;BME280;10913;51.992;9.228;2023-02-11T01:28:46;101920.69;;;6.43;100.00
21504;BME280;10913;51.992;9.228;2023-02-11T01:31:11;101918.00;;;6.42;100.00
21504;BME280;10913;51.992;9.228;2023-02-11T01:33:37;101911.88;;;6.41;100.00
21504;BME280;10913;51.992;9.228;2023-02-11T01:36:04;101911.97;;;6.44;100.00
21504;BME280;10913;51.992;9.228;2023-02-11T01:38:30;101910.19;;;6.43;100.00
21504;BME280;10913;51.992;9.228;2023-02-11T01:40:58;101893.44;;;6.40;100.00
21504;BME280;10913;51.992;9.228;2023-02-11T01:43:26;101901.16;;;6.35;100.00
21504;BME280;10913;51.992;9.228;2023-02-11T01:46:38;101900.38;;;6.38;100.00
21504;BME280;10913;51.992;9.228;2023-02-11T01:48:49;101889.84;;;6.36;100.00
21504;BME280;10913;51.992;9.228;2023-02-11T01:51:20;101895.09;;;6.36;100.00
21504;BME280;10913;51.992;9.228;2023-02-11T01:53:48;101901.28;;;6.38;100.00
21504;BME280;10913;51.992;9.228;2023-02-11T01:56:34;101889.94;;;6.39;100.00
21504;BME280;10913;51.992;9.228;2023-02-11T01:59:23;101890.78;;;6.38;100.00
21504;BME280;10913;51.992;9.228;2023-02-11T02:01:56;101898.69;;;6.40;100.00
21504;BME280;10913;51.992;9.228;2023-02-11T02:04:25;101886.44;;;6.39;100.00
21504;BME280;10913;51.992;9.228;2023-02-11T02:07:00;101889.00;;;6.37;100.00
21504;BME280;10913;51.992;9.228;2023-02-11T02:09:29;101885.47;;;6.37;100.00
21504;BME280;10913;51.992;9.228;2023-02-11T02:11:58;101882.75;;;6.34;100.00
21504;BME280;10913;51.992;9.228;2023-02-11T02:14:23;101890.66;;;6.35;100.00
21504;BME280;10913;51.992;9.228;2023-02-11T02:16:50;101885.41;;;6.35;100.00
21504;BME280;10913;51.992;9.228;2023-02-11T02:30:34;101879.72;;;6.23;100.00
21504;BME280;10913;51.992;9.228;2023-02-11T02:36:03;101853.59;;;6.26;100.00
21504;BME280;10913;51.992;9.228;2023-02-11T02:38:37;101846.53;;;6.25;100.00
21504;BME280;10913;51.992;9.228;2023-02-11T02:41:09;101845.59;;;6.23;100.00
21504;BME280;10913;51.992;9.228;2023-02-11T02:43:41;101848.34;;;6.26;100.00
21504;BME280;10913;51.992;9.228;2023-02-11T02:46:28;101854.47;;;6.27;100.00
21504;BME280;10913;51.992;9.228;2023-02-11T02:48:55;101855.38;;;6.27;100.00
21504;BME280;10913;51.992;9.228;2023-02-11T03:02:22;101849.91;;;6.21;100.00
21504;BME280;10913;51.992;9.228;2023-02-11T03:05:07;101848.09;;;6.18;100.00
21504;BME280;10913;51.992;9.228;2023-02-11T03:10:21;101841.09;;;6.19;100.00
21504;BME280;10913;51.992;9.228;2023-02-11T03:12:50;101844.66;;;6.21;100.00
21504;BME280;10913;51.992;9.228;2023-02-11T03:15:19;101842.84;;;6.20;100.00
21504;BME280;10913;51.992;9.228;2023-02-11T03:17:47;101841.09;;;6.19;100.00
21504;BME280;10913;51.992;9.228;2023-02-11T03:20:16;101842.84;;;6.18;100.00
21504;BME280;10913;51.992;9.228;2023-02-11T03:22:57;101844.59;;;6.19;100.00
21504;BME280;10913;51.992;9.228;2023-02-11T03:25:29;101835.94;;;6.22;100.00
21504;BME280;10913;51.992;9.228;2023-02-11T03:28:08;101828.91;;;6.21;100.00
21504;BME280;10913;51.992;9.228;2023-02-11T03:30:45;101831.53;;;6.21;100.00
21504;BME280;10913;51.992;9.228;2023-02-11T03:33:19;101832.38;;;6.20;100.00
21504;BME280;10913;51.992;9.228;2023-02-11T03:35:53;101833.94;;;6.15;100.00
21504;BME280;10913;51.992;9.228;2023-02-11T03:38:28;101834.72;;;6.12;100.00
21504;BME280;10913;51.992;9.228;2023-02-11T03:40:56;101837.41;;;6.14;100.00
21504;BME280;10913;51.992;9.228;2023-02-11T03:43:43;101820.88;;;6.16;100.00
21504;BME280;10913;51.992;9.228;2023-02-11T03:46:11;101806.75;;;6.13;100.00
21504;BME280;10913;51.992;9.228;2023-02-11T03:48:42;101806.75;;;6.13;100.00
21504;BME280;10913;51.992;9.228;2023-02-11T03:51:10;101806.72;;;6.11;100.00
21504;BME280;10913;51.992;9.228;2023-02-11T03:53:37;101810.28;;;6.13;100.00
21504;BME280;10913;51.992;9.228;2023-02-11T03:56:07;101809.38;;;6.13;100.00
21504;BME280;10913;51.992;9.228;2023-02-11T03:58:34;101805.81;;;6.11;100.00
21504;BME280;10913;51.992;9.228;2023-02-11T04:01:00;101817.16;;;6.10;100.00
21504;BME280;10913;51.992;9.228;2023-02-11T04:03:27;101821.63;;;6.12;100.00
21504;BME280;10913;51.992;9.228;2023-02-11T04:05:52;101814.63;;;6.13;100.00
21504;BME280;10913;51.992;9.228;2023-02-11T04:08:20;101799.84;;;6.15;100.00
21504;BME280;10913;51.992;9.228;2023-02-11T04:10:46;101799.63;;;6.09;100.00
21504;BME280;10913;51.992;9.228;2023-02-11T04:13:11;101802.47;;;6.15;100.00
21504;BME280;10913;51.992;9.228;2023-02-11T04:15:36;101793.66;;;6.13;100.00
21504;BME280;10913;51.992;9.228;2023-02-11T04:18:02;101806.72;;;6.11;100.00
21504;BME280;10913;51.992;9.228;2023-02-11T04:20:28;101794.41;;;6.10;100.00
21504;BME280;10913;51.992;9.228;2023-02-11T04:22:53;101803.06;;;6.08;100.00
21504;BME280;10913;51.992;9.228;2023-02-11T04:25:19;101811.91;;;6.10;100.00
21504;BME280;10913;51.992;9.228;2023-02-11T04:27:44;101812.72;;;6.09;100.00
21504;BME280;10913;51.992;9.228;2023-02-11T04:30:10;101828.59;;;6.12;100.00
21504;BME280;10913;51.992;9.228;2023-02-11T04:32:35;101815.47;;;6.12;100.00
21504;BME280;10913;51.992;9.228;2023-02-11T04:35:01;101815.53;;;6.13;100.00
21504;BME280;10913;51.992;9.228;2023-02-11T04:37:27;101827.81;;;6.14;100.00
21504;BME280;10913;51.992;9.228;2023-02-11T04:39:52;101821.66;;;6.14;100.00
21504;BME280;10913;51.992;9.228;2023-02-11T04:42:17;101818.22;;;6.15;100.00
21504;BME280;10913;51.992;9.228;2023-02-11T04:44:43;101818.09;;;6.12;100.00
21504;BME280;10913;51.992;9.228;2023-02-11T04:47:08;101815.47;;;6.12;100.00
21504;BME280;10913;51.992;9.228;2023-02-11T04:49:33;101816.41;;;6.14;100.00
21504;BME280;10913;51.992;9.228;2023-02-11T04:51:59;101811.16;;;6.14;100.00
21504;BME280;10913;51.992;9.228;2023-02-11T04:54:24;101809.56;;;6.17;100.00
21504;BME280;10913;51.992;9.228;2023-02-11T04:56:49;101811.22;;;6.15;100.00
21504;BME280;10913;51.992;9.228;2023-02-11T04:59:15;101811.16;;;6.14;100.00
21504;BME280;10913;51.992;9.228;2023-02-11T05:01:40;101804.25;;;6.16;100.00
21504;BME280;10913;51.992;9.228;2023-02-11T05:04:06;101805.16;;;6.16;100.00
21504;BME280;10913;51.992;9.228;2023-02-11T05:06:31;101797.22;;;6.15;100.00
21504;BME280;10913;51.992;9.228;2023-02-11T05:08:56;101798.91;;;6.13;100.00
21504;BME280;10913;51.992;9.228;2023-02-11T05:11:23;101805.88;;;6.12;100.00
21504;BME280;10913;51.992;9.228;2023-02-11T05:13:49;101806.72;;;6.11;100.00
21504;BME280;10913;51.992;9.228;2023-02-11T05:16:15;101800.56;;;6.11;100.00
21504;BME280;10913;51.992;9.228;2023-02-11T05:18:42;101791.75;;;6.09;100.00
21504;BME280;10913;51.992;9.228;2023-02-11T05:21:08;101793.66;;;6.13;100.00
21504;BME280;10913;51.992;9.228;2023-02-11T05:23:35;101789.28;;;6.13;100.00
21504;BME280;10913;51.992;9.228;2023-02-11T05:26:01;101790.25;;;6.15;100.00
21504;BME280;10913;51.992;9.228;2023-02-11T05:28:27;101784.09;;;6.15;100.00
21504;BME280;10913;51.992;9.228;2023-02-11T05:30:53;101787.38;;;6.09;100.00
21504;BME280;10913;51.992;9.228;2023-02-11T05:33:18;101776.91;;;6.09;100.00
21504;BME280;10913;51.992;9.228;2023-02-11T05:35:43;101774.31;;;6.11;100.00
21504;BME280;10913;51.992;9.228;2023-02-11T05:38:09;101798.06;;;6.14;100.00
21504;BME280;10913;51.992;9.228;2023-02-11T05:40:34;101791.97;;;6.15;100.00
21504;BME280;10913;51.992;9.228;2023-02-11T05:43:00;101797.16;;;6.13;100.00
21504;BME280;10913;51.992;9.228;2023-02-11T05:45:25;101803.31;;;6.14;100.00
21504;BME280;10913;51.992;9.228;2023-02-11T05:47:51;101798.13;;;6.15;100.00
21504;BME280;10913;51.992;9.228;2023-02-11T05:50:16;101799.84;;;6.15;100.00
21504;BME280;10913;51.992;9.228;2023-02-11T05:52:42;101799.00;;;6.16;100.00
21504;BME280;10913;51.992;9.228;2023-02-11T05:55:07;101810.34;;;6.15;100.00
21504;BME280;10913;51.992;9.228;2023-02-11T05:57:32;101818.22;;;6.15;100.00
21504;BME280;10913;51.992;9.228;2023-02-11T05:59:58;101807.78;;;6.16;100.00
21504;BME280;10913;51.992;9.228;2023-02-11T06:02:23;101805.16;;;6.16;100.00
21504;BME280;10913;51.992;9.228;2023-02-11T06:04:49;101804.25;;;6.16;100.00
21504;BME280;10913;51.992;9.228;2023-02-11T06:07:14;101812.13;;;6.16;100.00
21504;BME280;10913;51.992;9.228;2023-02-11T06:09:39;101813.84;;;6.15;100.00
21504;BME280;10913;51.992;9.228;2023-02-11T06:12:05;101803.31;;;6.14;100.00
21504;BME280;10913;51.992;9.228;2023-02-11T06:14:34;101812.25;;;6.19;100.00
21504;BME280;10913;51.992;9.228;2023-02-11T06:17:00;101808.66;;;6.17;100.00
21504;BME280;10913;51.992;9.228;2023-02-11T06:19:25;101811.28;;;6.17;100.00
21504;BME280;10913;51.992;9.228;2023-02-11T06:21:51;101806.94;;;6.17;100.00
21504;BME280;10913;51.992;9.228;2023-02-11T06:24:16;101806.13;;;6.20;100.00
21504;BME280;10913;51.992;9.228;2023-02-11T06:26:41;101807.91;;;6.21;100.00
21504;BME280;10913;51.992;9.228;2023-02-11T06:29:07;101806.13;;;6.20;100.00
21504;BME280;10913;51.992;9.228;2023-02-11T06:31:36;101797.31;;;6.18;100.00
21504;BME280;10913;51.992;9.228;2023-02-11T06:34:02;101794.66;;;6.16;100.00
21504;BME280;10913;51.992;9.228;2023-02-11T06:36:27;101802.53;;;6.16;100.00
21504;BME280;10913;51.992;9.228;2023-02-11T06:38:52;101798.13;;;6.15;100.00
21504;BME280;10913;51.992;9.228;2023-02-11T06:41:18;101806.94;;;6.17;100.00
21504;BME280;10913;51.992;9.228;2023-02-11T06:43:44;101820.09;;;6.19;100.00
21504;BME280;10913;51.992;9.228;2023-02-11T06:46:09;101811.38;;;6.20;100.00
21504;BME280;10913;51.992;9.228;2023-02-11T06:48:35;101810.44;;;6.18;100.00
21504;BME280;10913;51.992;9.228;2023-02-11T06:51:05;101821.88;;;6.20;100.00
21504;BME280;10913;51.992;9.228;2023-02-11T06:53:37;101820.09;;;6.19;100.00
21504;BME280;10913;51.992;9.228;2023-02-11T06:56:05;101824.47;;;6.18;100.00
21504;BME280;10913;51.992;9.228;2023-02-11T06:58:31;101821.84;;;6.18;100.00
21504;BME280;10913;51.992;9.228;2023-02-11T07:00:57;101817.47;;;6.19;100.00
21504;BME280;10913;51.992;9.228;2023-02-11T07:03:22;101822.72;;;6.19;100.00
21504;BME280;10913;51.992;9.228;2023-02-11T07:05:47;101824.50;;;6.20;100.00
21504;BME280;10913;51.992;9.228;2023-02-11T07:08:13;101820.13;;;6.20;100.00
21504;BME280;10913;51.992;9.228;2023-02-11T07:10:38;101822.16;;;6.28;100.00
21504;BME280;10913;51.992;9.228;2023-02-11T07:13:04;101823.88;;;6.27;100.00
21504;BME280;10913;51.992;9.228;2023-02-11T07:15:29;101818.69;;;6.29;100.00
21504;BME280;10913;51.992;9.228;2023-02-11T07:17:54;101819.56;;;6.29;100.00
21504;BME280;10913;51.992;9.228;2023-02-11T07:20:20;101825.59;;;6.27;100.00
21504;BME280;10913;51.992;9.228;2023-02-11T07:22:45;101819.56;;;6.29;100.00
21504;BME280;10913;51.992;9.228;2023-02-11T07:25:10;101825.72;;;6.30;100.00
21504;BME280;10913;51.992;9.228;2023-02-11T07:27:36;101823.88;;;6.27;100.00
21504;BME280;10913;51.992;9.228;2023-02-11T07:30:02;101822.97;;;6.27;100.00
21504;BME280;10913;51.992;9.228;2023-02-11T07:32:27;101833.53;;;6.28;100.00
21504;BME280;10913;51.992;9.228;2023-02-11T07:34:52;101822.09;;;6.26;100.00
21504;BME280;10913;51.992;9.228;2023-02-11T07:37:18;101835.28;;;6.28;100.00
21504;BME280;10913;51.992;9.228;2023-02-11T07:39:43;101835.38;;;6.31;100.00
21504;BME280;10913;51.992;9.228;2023-02-11T07:42:09;101842.41;;;6.32;100.00
21504;BME280;10913;51.992;9.228;2023-02-11T07:44:34;101838.84;;;6.30;100.00
21504;BME280;10913;51.992;9.228;2023-02-11T07:47:01;101831.09;;;6.33;100.00
21504;BME280;10913;51.992;9.228;2023-02-11T07:49:26;101838.06;;;6.32;100.00
21504;BME280;10913;51.992;9.228;2023-02-11T07:51:52;101832.94;;;6.35;100.00
21504;BME280;10913;51.992;9.228;2023-02-11T07:54:17;101839.84;;;6.33;100.00
21504;BME280;10913;51.992;9.228;2023-02-11T07:56:43;101822.44;;;6.35;100.00
21504;BME280;10913;51.992;9.228;2023-02-11T07:59:09;101837.34;;;6.36;100.00
21504;BME280;10913;51.992;9.228;2023-02-11T08:01:35;101841.69;;;6.36;100.00
21504;BME280;10913;51.992;9.228;2023-02-11T08:04:01;101841.81;;;6.39;100.00
21504;BME280;10913;51.992;9.228;2023-02-11T08:06:32;101847.00;;;6.37;100.00
21504;BME280;10913;51.992;9.228;2023-02-11T08:09:03;101841.00;;;6.41;100.00
21504;BME280;10913;51.992;9.228;2023-02-11T08:11:36;101852.38;;;6.42;100.00
21504;BME280;10913;51.992;9.228;2023-02-11T08:14:25;101859.28;;;6.38;100.00
21504;BME280;10913;51.992;9.228;2023-02-11T08:16:51;101865.44;;;6.39;100.00
21504;BME280;10913;51.992;9.228;2023-02-11T08:19:16;101864.53;;;6.38;100.00
21504;BME280;10913;51.992;9.228;2023-02-11T08:21:42;101871.56;;;6.39;100.00
21504;BME280;10913;51.992;9.228;2023-02-11T08:24:08;101873.31;;;6.40;100.00
21504;BME280;10913;51.992;9.228;2023-02-11T08:26:34;101867.19;;;6.40;100.00
21504;BME280;10913;51.992;9.228;2023-02-11T08:29:02;101873.44;;;6.43;100.00
21504;BME280;10913;51.992;9.228;2023-02-11T08:31:32;101862.94;;;6.43;100.00
21504;BME280;10913;51.992;9.228;2023-02-11T08:33:58;101870.88;;;6.45;100.00
21504;BME280;10913;51.992;9.228;2023-02-11T08:36:29;101884.06;;;6.46;100.00
21504;BME280;10913;51.992;9.228;2023-02-11T08:38:56;101868.19;;;6.43;100.00
21504;BME280;10913;51.992;9.228;2023-02-11T08:41:23;101875.34;;;6.47;100.00
21504;BME280;10913;51.992;9.228;2023-02-11T08:43:49;101873.66;;;6.49;100.00
21504;BME280;10913;51.992;9.228;2023-02-11T08:46:17;101875.47;;;6.50;100.00
21504;BME280;10913;51.992;9.228;2023-02-11T08:48:43;101878.09;;;6.50;100.00
21504;BME280;10913;51.992;9.228;2023-02-11T08:51:16;101883.28;;;6.49;100.00
21504;BME280;10913;51.992;9.228;2023-02-11T08:53:42;101884.28;;;6.52;100.00
21504;BME280;10913;51.992;9.228;2023-02-11T08:56:08;101887.97;;;6.57;100.00
21504;BME280;10913;51.992;9.228;2023-02-11T08:58:34;101882.59;;;6.54;100.00
21504;BME280;10913;51.992;9.228;2023-02-11T09:00:59;101881.78;;;6.55;100.00
21504;BME280;10913;51.992;9.228;2023-02-11T09:03:25;101891.63;;;6.63;100.00
21504;BME280;10913;51.992;9.228;2023-02-11T09:05:50;101883.81;;;6.64;100.00
21504;BME280;10913;51.992;9.228;2023-02-11T09:08:18;101896.94;;;6.64;100.00
21504;BME280;10913;51.992;9.228;2023-02-11T09:10:43;101883.75;;;6.63;100.00
21504;BME280;10913;51.992;9.228;2023-02-11T09:13:09;101888.09;;;6.62;100.00
21504;BME280;10913;51.992;9.228;2023-02-11T09:15:34;101895.16;;;6.63;100.00
21504;BME280;10913;51.992;9.228;2023-02-11T09:18:00;101909.16;;;6.64;100.00
21504;BME280;10913;51.992;9.228;2023-02-11T09:20:26;101907.38;;;6.63;100.00
21504;BME280;10913;51.992;9.228;2023-02-11T09:22:53;101910.06;;;6.64;100.00
21504;BME280;10913;51.992;9.228;2023-02-11T09:25:19;101906.59;;;6.65;100.00
21504;BME280;10913;51.992;9.228;2023-02-11T09:27:44;101905.69;;;6.65;100.00
21504;BME280;10913;51.992;9.228;2023-02-11T09:30:10;101903.88;;;6.62;100.00
21504;BME280;10913;51.992;9.228;2023-02-11T09:32:36;101902.25;;;6.66;100.00
21504;BME280;10913;51.992;9.228;2023-02-11T09:35:02;101904.81;;;6.64;100.00
21504;BME280;10913;51.992;9.228;2023-02-11T09:37:27;101903.97;;;6.65;100.00
21504;BME280;10913;51.992;9.228;2023-02-11T09:39:53;101911.06;;;6.68;100.00
21504;BME280;10913;51.992;9.228;2023-02-11T09:44:56;101907.59;;;6.69;100.00
21504;BME280;10913;51.992;9.228;2023-02-11T09:47:31;101915.66;;;6.73;100.00
21504;BME280;10913;51.992;9.228;2023-02-11T09:50:02;101920.00;;;6.73;100.00
21504;BME280;10913;51.992;9.228;2023-02-11T09:52:29;101924.31;;;6.71;100.00
21504;BME280;10913;51.992;9.228;2023-02-11T09:54:59;101927.84;;;6.71;100.00
21504;BME280;10913;51.992;9.228;2023-02-11T09:57:30;101933.97;;;6.72;100.00
21504;BME280;10913;51.992;9.228;2023-02-11T09:59:56;101929.50;;;6.69;100.00
21504;BME280;10913;51.992;9.228;2023-02-11T10:02:33;101934.09;;;6.75;100.00
21504;BME280;10913;51.992;9.228;2023-02-11T10:05:28;101936.00;;;6.80;100.00
21504;BME280;10913;51.992;9.228;2023-02-11T10:10:51;101939.50;;;6.79;100.00
21504;BME280;10913;51.992;9.228;2023-02-11T10:13:40;101939.66;;;6.84;100.00
21504;BME280;10913;51.992;9.228;2023-02-11T10:16:27;101945.00;;;6.87;100.00
21504;BME280;10913;51.992;9.228;2023-02-11T10:19:28;101957.41;;;6.91;100.00
21504;BME280;10913;51.992;9.228;2023-02-11T10:24:36;101958.31;;;6.91;100.00
21504;BME280;10913;51.992;9.228;2023-02-11T10:27:19;101949.53;;;6.91;100.00
21504;BME280;10913;51.992;9.228;2023-02-11T10:29:56;101960.16;;;6.94;100.00
21504;BME280;10913;51.992;9.228;2023-02-11T10:32:46;101959.03;;;6.87;100.00
21504;BME280;10913;51.992;9.228;2023-02-11T10:35:19;101966.03;;;6.87;100.00
21504;BME280;10913;51.992;9.228;2023-02-11T10:37:46;101960.00;;;6.89;100.00
21504;BME280;10913;51.992;9.228;2023-02-11T10:40:17;101969.50;;;6.86;100.00
21504;BME280;10913;51.992;9.228;2023-02-11T10:42:47;101953.72;;;6.86;100.00
21504;BME280;10913;51.992;9.228;2023-02-11T10:45:22;101959.94;;;6.88;100.00
21504;BME280;10913;51.992;9.228;2023-02-11T10:47:49;101963.75;;;6.96;100.00
21504;BME280;10913;51.992;9.228;2023-02-11T10:50:37;101973.59;;;7.03;100.00
21504;BME280;10913;51.992;9.228;2023-02-11T10:53:28;101971.94;;;7.05;100.00
21504;BME280;10913;51.992;9.228;2023-02-11T10:55:55;101977.22;;;7.07;100.00
21504;BME280;10913;51.992;9.228;2023-02-11T10:58:24;101965.09;;;7.10;100.00
21504;BME280;10913;51.992;9.228;2023-02-11T11:01:01;101971.19;;;7.09;100.00
21504;BME280;10913;51.992;9.228;2023-02-11T11:03:33;101965.00;;;7.07;100.00
21504;BME280;10913;51.992;9.228;2023-02-11T11:06:01;101960.75;;;7.11;100.00
21504;BME280;10913;51.992;9.228;2023-02-11T11:08:48;101970.34;;;7.10;100.00
21504;BME280;10913;51.992;9.228;2023-02-11T11:11:20;101967.72;;;7.10;100.00
21504;BME280;10913;51.992;9.228;2023-02-11T11:16:22;101970.66;;;7.19;100.00
21504;BME280;10913;51.992;9.228;2023-02-11T11:18:50;101968.13;;;7.22;100.00
21504;BME280;10913;51.992;9.228;2023-02-11T11:21:24;101959.50;;;7.26;100.00
21504;BME280;10913;51.992;9.228;2023-02-11T11:23:56;101948.84;;;7.22;100.00
21504;BME280;10913;51.992;9.228;2023-02-11T11:26:25;101950.63;;;7.23;100.00
21504;BME280;10913;51.992;9.228;2023-02-11T11:28:55;101955.09;;;7.25;100.00
21504;BME280;10913;51.992;9.228;2023-02-11T11:31:30;101955.19;;;7.29;100.00
21504;BME280;10913;51.992;9.228;2023-02-11T11:34:00;101956.25;;;7.34;100.00
21504;BME280;10913;51.992;9.228;2023-02-11T11:36:33;101953.72;;;7.37;100.00
21504;BME280;10913;51.992;9.228;2023-02-11T11:39:03;101944.16;;;7.39;100.00
21504;BME280;10913;51.992;9.228;2023-02-11T11:41:51;101949.38;;;7.37;100.00
21504;BME280;10913;51.992;9.228;2023-02-11T11:44:27;101951.16;;;7.40;100.00
21504;BME280;10913;51.992;9.228;2023-02-11T11:52:49;101949.25;;;7.34;100.00
21504;BME280;10913;51.992;9.228;2023-02-11T11:55:19;101952.06;;;7.40;100.00
21504;BME280;10913;51.992;9.228;2023-02-11T11:57:46;101948.66;;;7.43;100.00
21504;BME280;10913;51.992;9.228;2023-02-11T12:00:27;101942.53;;;7.44;100.00
21504;BME280;10913;51.992;9.228;2023-02-11T12:05:51;101938.44;;;7.52;100.00
21504;BME280;10913;51.992;9.228;2023-02-11T12:08:44;101947.44;;;7.58;100.00
21504;BME280;10913;51.992;9.228;2023-02-11T12:11:27;101941.28;;;7.59;100.00
21504;BME280;10913;51.992;9.228;2023-02-11T12:16:54;101945.59;;;7.56;100.00
21504;BME280;10913;51.992;9.228;2023-02-11T12:19:49;101945.75;;;7.62;100.00
21504;BME280;10913;51.992;9.228;2023-02-11T12:25:16;101942.38;;;7.66;100.00
21504;BME280;10913;51.992;9.228;2023-02-11T12:39:55;101940.97;;;7.76;100.00
21504;BME280;10913;51.992;9.228;2023-02-11T12:51:41;101936.09;;;7.89;100.00
21504;BME280;10913;51.992;9.228;2023-02-11T12:59:42;101937.19;;;7.96;100.00
21504;BME280;10913;51.992;9.228;2023-02-11T13:02:45;101930.25;;;8.00;100.00
21504;BME280;10913;51.992;9.228;2023-02-11T13:05:26;101934.78;;;8.04;100.00
21504;BME280;10913;51.992;9.228;2023-02-11T13:08:15;101933.94;;;8.05;100.00
21504;BME280;10913;51.992;9.228;2023-02-11T13:10:45;101932.09;;;8.02;100.00
21504;BME280;10913;51.992;9.228;2023-02-11T13:15:47;101940.13;;;8.07;100.00
21504;BME280;10913;51.992;9.228;2023-02-11T13:23:44;101940.00;;;8.02;100.00
21504;BME280;10913;51.992;9.228;2023-02-11T13:26:22;101941.63;;;7.97;100.00
21504;BME280;10913;51.992;9.228;2023-02-11T13:29:12;101938.97;;;7.97;100.00
21504;BME280;10913;51.992;9.228;2023-02-11T13:31:39;101935.38;;;7.93;100.00
21504;BME280;10913;51.992;9.228;2023-02-11T13:36:56;101935.47;;;7.97;100.00
21504;BME280;10913;51.992;9.228;2023-02-11T13:39:22;101941.56;;;7.95;100.00
21504;BME280;10913;51.992;9.228;2023-02-11T13:41:47;101942.47;;;7.96;100.00
21504;BME280;10913;51.992;9.228;2023-02-11T13:47:05;101950.31;;;7.94;100.00
21504;BME280;10913;51.992;9.228;2023-02-11T13:49:40;101952.09;;;7.95;100.00
21504;BME280;10913;51.992;9.228;2023-02-11T13:52:33;101948.53;;;7.93;100.00
21504;BME280;10913;51.992;9.228;2023-02-11T13:55:08;101947.56;;;7.91;100.00
21504;BME280;10913;51.992;9.228;2023-02-11T13:57:40;101943.91;;;7.86;100.00
21504;BME280;10913;51.992;9.228;2023-02-11T14:00:08;101942.97;;;7.84;100.00
21504;BME280;10913;51.992;9.228;2023-02-11T14:06:14;101954.47;;;7.88;100.00
21504;BME280;10913;51.992;9.228;2023-02-11T14:14:18;101949.41;;;7.94;100.00
21504;BME280;10913;51.992;9.228;2023-02-11T14:19:34;101940.84;;;8.01;100.00
21504;BME280;10913;51.992;9.228;2023-02-11T14:35:31;101956.72;;;8.04;100.00
21504;BME280;10913;51.992;9.228;2023-02-11T14:38:13;101959.41;;;8.06;100.00
21504;BME280;10913;51.992;9.228;2023-02-11T14:40:58;101956.81;;;8.07;100.00
21504;BME280;10913;51.992;9.228;2023-02-11T14:43:34;101964.78;;;8.09;100.00
21504;BME280;10913;51.992;9.228;2023-02-11T14:46:01;101971.81;;;8.10;100.00
21504;BME280;10913;51.992;9.228;2023-02-11T14:48:30;101970.09;;;8.10;100.00
21504;BME280;10913;51.992;9.228;2023-02-11T14:53:33;101965.81;;;8.14;100.00
21504;BME280;10913;51.992;9.228;2023-02-11T14:56:00;101968.53;;;8.17;100.00
21504;BME280;10913;51.992;9.228;2023-02-11T14:58:28;101965.06;;;8.18;100.00
21504;BME280;10913;51.992;9.228;2023-02-11T15:00:59;101961.53;;;8.17;100.00
21504;BME280;10913;51.992;9.228;2023-02-11T15:03:35;101973.88;;;8.20;100.00